Time;durP1;ratioP1;P1;durP2;ratioP2;P2;SDS_P1;SDS_P2;PMS_P1;PMS_P2;Temp;Humidity;BMP_temperature;BMP_pressure;BME280_temperature;BME280_humidity;BME280_pressure;Samples;Min_cycle;Max_cycle;Signal;HPM_P1;HPM_P2
2022/05/03 00:00:09;;;;;;;;;;;;;;;6.44;73.68;100387.47;85561;1339;23087;-78
2022/05/03 00:02:43;;;;;;;;;;;;;;;6.44;73.75;100385.39;85553;1339;22535;-78
2022/05/03 00:04:54;;;;;;;;;;;;;;;6.42;73.63;100383.36;85700;1336;22593;-77
2022/05/03 00:07:03;;;;;;;;;;;;;;;6.42;73.43;100378.52;85378;1339;23184;-77
2022/05/03 00:09:08;;;;;;;;;;;;;;;6.41;73.27;100379.05;85530;1339;23190;-78
2022/05/03 00:11:19;;;;;;;;;;;;;;;6.40;73.61;100379.58;85561;1340;22517;-78
2022/05/03 00:13:28;;;;;;;;;;;;;;;6.41;73.84;100382.17;85552;1337;22463;-78
2022/05/03 00:15:34;;;;;;;;;;;;;;;6.42;73.30;100382.84;85573;1336;22504;-78
2022/05/03 00:17:38;;;;;;;;;;;;;;;6.41;73.08;100384.42;85703;1336;22526;-78
2022/05/03 00:19:46;;;;;;;;;;;;;;;6.40;73.13;100381.83;85563;1341;23466;-77
2022/05/03 00:21:51;;;;;;;;;;;;;;;6.38;73.33;100381.20;85559;1339;22558;-77
2022/05/03 00:23:55;;;;;;;;;;;;;;;6.34;73.41;100381.60;85550;1339;23177;-77
2022/05/03 00:26:03;;;;;;;;;;;;;;;6.31;73.61;100374.92;85426;1339;22510;-77
2022/05/03 00:28:10;;;;;;;;;;;;;;;6.29;73.36;100374.78;85692;1335;22539;-77
2022/05/03 00:30:15;;;;;;;;;;;;;;;6.27;73.32;100375.52;85551;1340;22496;-77
2022/05/03 00:32:20;;;;;;;;;;;;;;;6.28;73.86;100376.70;85551;1339;23066;-77
2022/05/03 00:34:25;;;;;;;;;;;;;;;6.26;73.62;100384.58;84855;1338;1002140;-77
2022/05/03 00:36:30;;;;;;;;;;;;;;;6.26;74.02;100389.25;85691;1336;22554;-77
2022/05/03 00:38:35;;;;;;;;;;;;;;;6.25;73.67;100388.55;85518;1340;23206;-77
2022/05/03 00:40:44;;;;;;;;;;;;;;;6.25;73.58;100391.85;85551;1339;23132;-78
2022/05/03 00:42:57;;;;;;;;;;;;;;;6.25;73.62;100386.65;85692;1339;23161;-78
2022/05/03 00:45:08;;;;;;;;;;;;;;;6.26;73.87;100386.63;85720;1336;23318;-77
2022/05/03 00:47:15;;;;;;;;;;;;;;;6.28;73.79;100390.75;85709;1336;22620;-77
2022/05/03 00:49:25;;;;;;;;;;;;;;;6.29;73.90;100386.23;84999;1335;1002513;-77
2022/05/03 00:51:36;;;;;;;;;;;;;;;6.30;73.71;100388.11;84839;1336;1002421;-78
2022/05/03 00:53:48;;;;;;;;;;;;;;;6.31;73.53;100382.20;85696;1340;23148;-78
2022/05/03 00:56:23;;;;;;;;;;;;;;;6.31;73.55;100383.77;85568;1339;22504;-78
2022/05/03 00:58:37;;;;;;;;;;;;;;;6.34;73.62;100386.29;85194;1341;23325;-78
2022/05/03 01:00:47;;;;;;;;;;;;;;;6.37;73.78;100380.54;85706;1336;22512;-78
2022/05/03 01:03:01;;;;;;;;;;;;;;;6.38;73.73;100378.77;85565;1338;22508;-78
2022/05/03 01:05:09;;;;;;;;;;;;;;;6.40;73.84;100375.08;85580;1338;22494;-77
2022/05/03 01:07:27;;;;;;;;;;;;;;;6.42;73.55;100372.45;85706;1336;22504;-78
2022/05/03 01:09:38;;;;;;;;;;;;;;;6.42;73.58;100372.09;85578;1338;22611;-78
2022/05/03 01:11:58;;;;;;;;;;;;;;;6.44;73.58;100370.81;85710;1333;22503;-78
2022/05/03 01:14:13;;;;;;;;;;;;;;;6.44;73.74;100369.09;85543;1339;22515;-78
2022/05/03 01:16:24;;;;;;;;;;;;;;;6.43;73.40;100366.87;85552;1336;23194;-77
2022/05/03 01:18:34;;;;;;;;;;;;;;;6.44;73.63;100368.23;85553;1336;22461;-77
2022/05/03 01:20:43;;;;;;;;;;;;;;;6.45;73.80;100371.52;85431;1338;22501;-77
2022/05/03 01:23:07;;;;;;;;;;;;;;;6.46;73.73;100372.88;85551;1336;22488;-77
2022/05/03 01:25:24;;;;;;;;;;;;;;;6.47;73.94;100369.03;85554;1333;22472;-78
2022/05/03 01:27:44;;;;;;;;;;;;;;;6.48;73.89;100371.09;85560;1339;22500;-78
2022/05/03 01:29:52;;;;;;;;;;;;;;;6.49;73.78;100372.13;85541;1333;22464;-78
2022/05/03 01:31:58;;;;;;;;;;;;;;;6.49;73.87;100371.59;85543;1336;22485;-77
2022/05/03 01:34:06;;;;;;;;;;;;;;;6.50;73.86;100373.13;85522;1339;22510;-77
2022/05/03 01:36:10;;;;;;;;;;;;;;;6.52;73.91;100375.19;85650;1337;23150;-77
2022/05/03 01:38:28;;;;;;;;;;;;;;;6.55;73.78;100376.52;85705;1335;23143;-78
2022/05/03 01:41:03;;;;;;;;;;;;;;;6.57;73.75;100375.06;85709;1336;23033;-78
2022/05/03 01:43:13;;;;;;;;;;;;;;;6.60;73.80;100375.00;85693;1336;23179;-78
2022/05/03 01:45:21;;;;;;;;;;;;;;;6.61;73.57;100377.23;85713;1336;23073;-78
2022/05/03 01:47:30;;;;;;;;;;;;;;;6.62;73.55;100378.23;85705;1336;23113;-78
2022/05/03 01:52:34;;;;;;;;;;;;;;;6.65;73.49;100385.46;85679;1336;22509;-78
2022/05/03 01:54:59;;;;;;;;;;;;;;;6.65;73.47;100381.48;85260;1341;22553;-78
2022/05/03 01:57:08;;;;;;;;;;;;;;;6.67;73.36;100380.58;85548;1339;22547;-78
2022/05/03 01:59:26;;;;;;;;;;;;;;;6.69;73.40;100382.60;85716;1335;23269;-78
2022/05/03 02:01:44;;;;;;;;;;;;;;;6.71;73.02;100378.58;85564;1339;22555;-78
2022/05/03 02:03:50;;;;;;;;;;;;;;;6.73;72.87;100383.20;85699;1336;23142;-78
2022/05/03 02:06:01;;;;;;;;;;;;;;;6.75;72.93;100382.30;85514;1333;22587;-78
2022/05/03 02:08:06;;;;;;;;;;;;;;;6.75;72.65;100385.08;85705;1336;22573;-78
2022/05/03 02:10:13;;;;;;;;;;;;;;;6.76;72.82;100381.61;85711;1335;22558;-78
2022/05/03 02:12:21;;;;;;;;;;;;;;;6.77;72.60;100383.66;85710;1335;23046;-78
2022/05/03 02:14:44;;;;;;;;;;;;;;;6.79;72.38;100387.94;85715;1336;22551;-78
2022/05/03 02:16:57;;;;;;;;;;;;;;;6.80;72.34;100382.71;85696;1337;22642;-78
2022/05/03 02:19:08;;;;;;;;;;;;;;;6.82;72.06;100387.70;85704;1339;22600;-77
2022/05/03 02:21:17;;;;;;;;;;;;;;;6.83;72.41;100389.73;85546;1336;22492;-77
2022/05/03 02:23:35;;;;;;;;;;;;;;;6.85;72.04;100389.38;85653;1335;22423;-77
2022/05/03 02:26:11;;;;;;;;;;;;;;;6.85;72.03;100391.27;85687;1337;23131;-76
2022/05/03 02:28:23;;;;;;;;;;;;;;;6.87;71.97;100392.09;85527;1339;23136;-77
2022/05/03 02:30:31;;;;;;;;;;;;;;;6.88;71.71;100391.90;85709;1336;23193;-77
2022/05/03 02:32:40;;;;;;;;;;;;;;;6.88;71.62;100389.10;85429;1339;22589;-78
2022/05/03 02:34:50;;;;;;;;;;;;;;;6.89;71.57;100388.23;85584;1337;23219;-77
2022/05/03 02:37:01;;;;;;;;;;;;;;;6.89;71.43;100385.62;85580;1339;23539;-77
2022/05/03 02:39:06;;;;;;;;;;;;;;;6.89;71.52;100383.73;85484;1339;22600;-77
2022/05/03 02:41:14;;;;;;;;;;;;;;;6.89;71.23;100381.29;85493;1340;23249;-77
2022/05/03 02:43:25;;;;;;;;;;;;;;;6.86;71.32;100382.92;85665;1337;23023;-76
2022/05/03 02:45:32;;;;;;;;;;;;;;;6.83;71.19;100382.45;85658;1336;22470;-77
2022/05/03 02:47:41;;;;;;;;;;;;;;;6.80;70.78;100385.15;85747;1336;23118;-77
2022/05/03 02:49:57;;;;;;;;;;;;;;;6.75;70.94;100386.64;85756;1336;22426;-77
2022/05/03 02:52:09;;;;;;;;;;;;;;;6.68;70.95;100386.27;85660;1337;22541;-78
2022/05/03 02:54:21;;;;;;;;;;;;;;;6.63;70.45;100386.55;85732;1335;23134;-78
2022/05/03 02:56:30;;;;;;;;;;;;;;;6.56;70.81;100383.74;85642;1336;23249;-78
2022/05/03 02:58:41;;;;;;;;;;;;;;;6.50;70.76;100385.44;85414;1339;22501;-78
2022/05/03 03:03:36;;;;;;;;;;;;;;;6.34;70.62;100386.30;85736;1337;22676;-77
2022/05/03 03:05:44;;;;;;;;;;;;;;;6.25;71.12;100389.26;85743;1336;23039;-77
2022/05/03 03:07:53;;;;;;;;;;;;;;;6.17;71.23;100388.02;85636;1336;23083;-77
2022/05/03 03:10:02;;;;;;;;;;;;;;;6.12;71.26;100386.57;85644;1339;22474;-78
2022/05/03 03:12:15;;;;;;;;;;;;;;;6.05;71.36;100385.66;85616;1336;22527;-77
2022/05/03 03:14:26;;;;;;;;;;;;;;;5.99;71.32;100384.73;85621;1336;22512;-77
2022/05/03 03:16:32;;;;;;;;;;;;;;;5.93;71.56;100386.74;85734;1338;23528;-76
2022/05/03 03:18:36;;;;;;;;;;;;;;;5.89;71.66;100387.48;85636;1339;23121;-76
2022/05/03 03:20:45;;;;;;;;;;;;;;;5.85;71.91;100389.64;85630;1336;23216;-78
2022/05/03 03:22:50;;;;;;;;;;;;;;;5.81;71.77;100390.58;85738;1336;23167;-78
2022/05/03 03:24:55;;;;;;;;;;;;;;;5.76;72.10;100388.76;85644;1338;22497;-76
2022/05/03 03:27:00;;;;;;;;;;;;;;;5.73;71.95;100391.94;85641;1339;22587;-77
2022/05/03 03:29:06;;;;;;;;;;;;;;;5.69;72.18;100391.48;85524;1339;22500;-77
2022/05/03 03:31:11;;;;;;;;;;;;;;;5.66;72.23;100392.73;85625;1337;23258;-78
2022/05/03 03:33:18;;;;;;;;;;;;;;;5.65;72.43;100393.10;85647;1340;23203;-78
2022/05/03 03:35:24;;;;;;;;;;;;;;;5.62;72.53;100394.55;85642;1339;22494;-78
2022/05/03 03:37:33;;;;;;;;;;;;;;;5.61;72.81;100399.23;85640;1340;22502;-78
2022/05/03 03:39:41;;;;;;;;;;;;;;;5.62;72.84;100401.83;85638;1338;22470;-78
2022/05/03 03:41:47;;;;;;;;;;;;;;;5.66;73.11;100401.05;85620;1336;23027;-78
2022/05/03 03:43:53;;;;;;;;;;;;;;;5.72;73.40;100401.99;85619;1338;22546;-77
2022/05/03 03:46:01;;;;;;;;;;;;;;;5.79;73.56;100402.73;85624;1336;23094;-77
2022/05/03 03:48:06;;;;;;;;;;;;;;;5.88;73.58;100404.99;85552;1336;23198;-77
2022/05/03 03:50:14;;;;;;;;;;;;;;;6.00;73.61;100404.46;85722;1338;22453;-77
2022/05/03 03:52:18;;;;;;;;;;;;;;;6.09;73.68;100404.45;85595;1340;23601;-77
2022/05/03 03:54:23;;;;;;;;;;;;;;;6.19;73.60;100403.90;85760;1334;22570;-76
2022/05/03 03:56:28;;;;;;;;;;;;;;;6.54;73.98;100403.05;85641;1339;23120;-77
2022/05/03 03:58:35;;;;;;;;;;;;;;;6.73;73.41;100403.85;84947;1336;1007342;-77
2022/05/03 04:00:43;;;;;;;;;;;;;;;6.84;73.39;100408.28;85635;1336;22619;-77
2022/05/03 04:02:51;;;;;;;;;;;;;;;7.28;74.15;100405.69;85749;1338;22499;-77
2022/05/03 04:04:58;;;;;;;;;;;;;;;7.98;75.77;100398.02;85654;1337;23159;-77
2022/05/03 04:07:03;;;;;;;;;;;;;;;8.64;73.88;100399.33;85764;1336;22483;-76
2022/05/03 04:09:09;;;;;;;;;;;;;;;8.99;72.34;100400.68;85668;1336;23067;-78
2022/05/03 04:11:17;;;;;;;;;;;;;;;9.04;70.68;100404.03;85301;1341;22465;-78
2022/05/03 04:13:22;;;;;;;;;;;;;;;8.97;69.70;100405.80;85655;1336;23078;-78
2022/05/03 04:15:27;;;;;;;;;;;;;;;9.00;69.39;100406.74;85678;1336;22459;-78
2022/05/03 04:17:32;;;;;;;;;;;;;;;8.99;68.94;100406.28;85757;1335;22807;-78
2022/05/03 04:19:39;;;;;;;;;;;;;;;9.02;68.54;100406.55;85555;1338;22556;-78
2022/05/03 04:21:48;;;;;;;;;;;;;;;9.07;68.52;100410.52;85564;1339;23094;-78
2022/05/03 04:23:53;;;;;;;;;;;;;;;9.13;68.33;100416.98;85682;1336;22594;-78
2022/05/03 04:25:57;;;;;;;;;;;;;;;9.13;67.96;100414.17;85665;1337;22466;-78
2022/05/03 04:28:02;;;;;;;;;;;;;;;9.13;67.52;100415.25;85647;1339;23233;-78
2022/05/03 04:30:09;;;;;;;;;;;;;;;9.12;67.27;100417.36;85688;1337;23064;-77
2022/05/03 04:32:14;;;;;;;;;;;;;;;9.11;67.17;100414.41;85673;1337;22482;-77
2022/05/03 04:34:19;;;;;;;;;;;;;;;9.18;67.32;100418.90;85788;1336;23187;-77
2022/05/03 04:36:25;;;;;;;;;;;;;;;9.67;68.04;100416.42;85653;1336;22539;-78
2022/05/03 04:38:32;;;;;;;;;;;;;;;10.61;68.76;100420.45;85670;1336;22593;-78
2022/05/03 04:40:40;;;;;;;;;;;;;;;11.67;67.37;100418.52;85701;1336;22475;-78
2022/05/03 04:42:44;;;;;;;;;;;;;;;12.69;65.33;100414.27;85648;1339;22601;-78
2022/05/03 04:44:49;;;;;;;;;;;;;;;13.65;62.45;100415.48;85667;1339;23138;-78
2022/05/03 04:46:53;;;;;;;;;;;;;;;14.51;59.80;100413.46;85653;1337;22523;-78
2022/05/03 04:49:01;;;;;;;;;;;;;;;15.32;57.21;100414.63;85661;1337;22606;-78
2022/05/03 04:51:05;;;;;;;;;;;;;;;16.14;55.27;100412.80;85763;1335;22522;-78
2022/05/03 04:53:13;;;;;;;;;;;;;;;16.94;52.36;100413.70;85659;1339;22452;-79
2022/05/03 04:55:18;;;;;;;;;;;;;;;17.43;49.84;100410.18;85673;1336;23023;-79
2022/05/03 04:57:23;;;;;;;;;;;;;;;17.51;48.35;100408.55;85501;1339;22605;-79
2022/05/03 04:59:28;;;;;;;;;;;;;;;17.91;46.23;100408.23;85679;1339;22534;-79
2022/05/03 05:01:36;;;;;;;;;;;;;;;18.25;45.54;100416.30;85749;1336;22502;-78
2022/05/03 05:03:43;;;;;;;;;;;;;;;18.72;44.87;100416.90;85491;1339;244568;-79
2022/05/03 05:05:48;;;;;;;;;;;;;;;19.34;43.30;100421.97;85730;1336;23186;-79
2022/05/03 05:07:52;;;;;;;;;;;;;;;19.78;42.11;100418.52;85739;1338;23112;-79
2022/05/03 05:12:26;;;;;;;;;;;;;;;20.90;38.69;100416.75;85681;1339;23206;-79
2022/05/03 05:14:33;;;;;;;;;;;;;;;21.56;38.30;100413.33;85751;1337;22618;-79
2022/05/03 05:16:38;;;;;;;;;;;;;;;22.35;36.14;100413.69;85641;1340;22539;-79
2022/05/03 05:18:42;;;;;;;;;;;;;;;22.82;34.77;100414.55;85662;1336;22768;-79
2022/05/03 05:20:47;;;;;;;;;;;;;;;23.22;33.37;100415.96;85655;1335;23073;-79
2022/05/03 05:22:52;;;;;;;;;;;;;;;23.50;32.22;100416.09;85637;1336;23202;-79
2022/05/03 05:24:59;;;;;;;;;;;;;;;23.31;32.42;100417.42;85655;1336;23084;-79
2022/05/03 05:27:06;;;;;;;;;;;;;;;22.93;31.85;100418.63;85641;1336;22579;-79
2022/05/03 05:29:13;;;;;;;;;;;;;;;23.11;31.91;100417.51;85654;1337;22446;-80
2022/05/03 05:31:21;;;;;;;;;;;;;;;23.44;31.72;100415.79;85655;1340;23035;-80
2022/05/03 05:33:25;;;;;;;;;;;;;;;23.80;31.00;100416.19;85764;1335;22598;-80
2022/05/03 05:35:30;;;;;;;;;;;;;;;24.41;30.82;100415.65;85770;1336;23103;-78
2022/05/03 05:37:35;;;;;;;;;;;;;;;25.05;29.56;100413.20;85635;1339;22594;-78
2022/05/03 05:39:40;;;;;;;;;;;;;;;25.44;28.56;100407.95;85652;1336;23109;-79
2022/05/03 05:41:56;;;;;;;;;;;;;;;25.64;27.43;100409.47;85635;1338;22995;-78
2022/05/03 05:44:03;;;;;;;;;;;;;;;25.95;27.23;100404.20;85646;1336;23216;-78
2022/05/03 05:46:10;;;;;;;;;;;;;;;26.12;26.33;100407.08;85537;1338;23022;-79
2022/05/03 05:48:15;;;;;;;;;;;;;;;26.44;26.39;100408.98;85621;1339;22521;-78
2022/05/03 05:50:20;;;;;;;;;;;;;;;26.70;25.10;100406.81;85643;1336;23210;-78
2022/05/03 05:54:48;;;;;;;;;;;;;;;26.96;24.65;100408.20;85754;1332;23224;-81
2022/05/03 05:56:53;;;;;;;;;;;;;;;27.09;24.39;100413.23;85645;1336;22536;-81
2022/05/03 05:58:57;;;;;;;;;;;;;;;27.26;23.68;100413.21;85644;1329;22649;-82
2022/05/03 06:01:02;;;;;;;;;;;;;;;27.46;23.89;100409.85;85624;1339;22468;-81
2022/05/03 06:03:06;;;;;;;;;;;;;;;27.69;23.43;100410.90;85486;1339;23146;-81
2022/05/03 06:05:11;;;;;;;;;;;;;;;28.01;23.19;100413.25;85649;1336;23062;-78
2022/05/03 06:07:19;;;;;;;;;;;;;;;28.22;22.27;100411.15;85554;1338;22495;-78
2022/05/03 06:09:24;;;;;;;;;;;;;;;28.20;21.95;100412.92;85642;1337;23119;-78
2022/05/03 06:11:31;;;;;;;;;;;;;;;28.13;21.64;100412.80;85636;1337;22987;-78
2022/05/03 06:13:36;;;;;;;;;;;;;;;28.23;21.54;100412.08;85628;1339;23130;-78
2022/05/03 06:15:43;;;;;;;;;;;;;;;28.48;21.22;100413.73;85739;1335;22499;-82
2022/05/03 06:17:48;;;;;;;;;;;;;;;28.89;21.96;100413.92;85637;1336;22470;-82
2022/05/03 06:19:53;;;;;;;;;;;;;;;29.15;21.54;100413.70;85747;1335;23176;-78
2022/05/03 06:22:02;;;;;;;;;;;;;;;29.54;20.35;100412.79;85753;1338;22483;-79
2022/05/03 06:24:08;;;;;;;;;;;;;;;29.67;19.89;100413.65;85757;1336;23041;-81
2022/05/03 06:26:12;;;;;;;;;;;;;;;29.85;19.82;100415.99;85619;1336;22496;-81
2022/05/03 06:28:20;;;;;;;;;;;;;;;30.15;19.87;100412.63;85745;1337;23273;-81
2022/05/03 06:30:30;;;;;;;;;;;;;;;30.71;19.77;100416.70;85645;1336;22491;-81
2022/05/03 06:32:40;;;;;;;;;;;;;;;31.19;18.75;100417.38;85473;1339;22664;-81
2022/05/03 06:34:48;;;;;;;;;;;;;;;31.20;18.63;100417.30;85604;1338;22499;-82
2022/05/03 06:36:55;;;;;;;;;;;;;;;31.23;18.41;100417.49;85582;1339;23058;-82
2022/05/03 06:39:00;;;;;;;;;;;;;;;31.18;18.42;100420.27;85737;1337;23069;-80
2022/05/03 06:41:08;;;;;;;;;;;;;;;31.06;18.27;100419.27;85644;1336;23238;-79
2022/05/03 06:43:13;;;;;;;;;;;;;;;30.93;18.62;100419.61;85628;1336;22483;-79
2022/05/03 06:45:18;;;;;;;;;;;;;;;31.20;18.29;100421.14;85512;1338;23136;-79
2022/05/03 06:47:22;;;;;;;;;;;;;;;31.47;17.71;100424.70;85646;1336;23251;-79
2022/05/03 06:49:28;;;;;;;;;;;;;;;31.51;18.11;100427.14;85656;1339;23103;-82
2022/05/03 06:51:34;;;;;;;;;;;;;;;31.82;17.81;100428.98;85639;1339;22458;-80
2022/05/03 06:53:43;;;;;;;;;;;;;;;31.95;17.63;100424.39;85642;1336;22498;-81
2022/05/03 06:55:48;;;;;;;;;;;;;;;32.09;17.58;100428.63;85627;1339;22495;-80
2022/05/03 06:57:55;;;;;;;;;;;;;;;32.30;17.19;100425.48;85634;1336;22665;-79
2022/05/03 07:00:05;;;;;;;;;;;;;;;32.34;17.01;100429.74;85644;1336;23079;-79
2022/05/03 07:02:11;;;;;;;;;;;;;;;32.36;16.92;100427.11;85582;1338;22508;-80
2022/05/03 07:04:16;;;;;;;;;;;;;;;32.22;16.83;100427.16;85676;1339;23101;-82
2022/05/03 07:06:21;;;;;;;;;;;;;;;32.19;16.86;100427.15;85644;1336;22621;-79
2022/05/03 07:08:26;;;;;;;;;;;;;;;32.20;16.64;100428.27;85641;1336;23074;-77
2022/05/03 07:10:30;;;;;;;;;;;;;;;32.11;16.79;100432.84;85654;1336;22603;-81
2022/05/03 07:12:35;;;;;;;;;;;;;;;32.17;17.10;100431.84;85638;1339;22530;-81
2022/05/03 07:14:43;;;;;;;;;;;;;;;32.47;17.16;100432.27;85632;1336;23155;-78
2022/05/03 07:16:51;;;;;;;;;;;;;;;32.85;16.59;100431.88;85736;1336;22519;-83
2022/05/03 07:23:49;;;;;;;;;;;;;;;32.61;16.10;100436.10;85642;1339;22473;-80
2022/05/03 07:25:58;;;;;;;;;;;;;;;32.48;16.42;100434.44;85740;1335;22629;-81
2022/05/03 07:28:03;;;;;;;;;;;;;;;32.72;15.95;100438.69;85644;1332;22567;-81
2022/05/03 07:30:11;;;;;;;;;;;;;;;32.63;15.94;100438.27;85623;1337;22498;-81
2022/05/03 07:32:16;;;;;;;;;;;;;;;32.40;15.37;100438.00;85638;1336;23127;-81
2022/05/03 07:34:23;;;;;;;;;;;;;;;32.13;15.79;100442.83;85751;1338;23238;-79
2022/05/03 07:36:29;;;;;;;;;;;;;;;31.95;15.97;100439.04;85630;1337;22610;-79
2022/05/03 07:38:34;;;;;;;;;;;;;;;32.15;16.13;100443.31;85635;1336;23168;-79
2022/05/03 07:40:39;;;;;;;;;;;;;;;32.18;15.67;100443.64;85447;1339;22530;-81
2022/05/03 07:42:46;;;;;;;;;;;;;;;32.10;15.61;100444.34;85629;1336;22538;-80
2022/05/03 07:44:53;;;;;;;;;;;;;;;31.92;15.69;100445.60;85640;1339;23074;-80
2022/05/03 07:46:58;;;;;;;;;;;;;;;31.73;15.85;100449.06;85647;1339;23089;-82
2022/05/03 07:49:03;;;;;;;;;;;;;;;31.68;16.19;100451.65;85636;1336;23175;-80
2022/05/03 07:51:07;;;;;;;;;;;;;;;31.98;17.21;100450.19;85747;1336;22527;-81
2022/05/03 07:53:12;;;;;;;;;;;;;;;32.37;16.05;100452.40;85649;1336;22518;-80
2022/05/03 07:55:18;;;;;;;;;;;;;;;32.45;16.02;100449.59;85759;1338;22468;-79
2022/05/03 07:57:24;;;;;;;;;;;;;;;32.89;15.74;100451.42;85663;1339;23206;-78
2022/05/03 07:59:36;;;;;;;;;;;;;;;33.03;15.30;100455.00;85669;1339;22533;-81
2022/05/03 08:01:45;;;;;;;;;;;;;;;32.86;15.01;100452.02;85787;1336;22453;-81
2022/05/03 08:03:49;;;;;;;;;;;;;;;32.74;15.12;100452.33;85756;1336;22462;-79
2022/05/03 08:05:57;;;;;;;;;;;;;;;32.51;15.19;100452.21;85500;1339;23206;-78
2022/05/03 08:08:06;;;;;;;;;;;;;;;32.37;15.40;100457.33;85762;1337;22512;-78
2022/05/03 08:10:13;;;;;;;;;;;;;;;32.15;15.14;100452.88;85668;1339;22493;-80
2022/05/03 08:12:22;;;;;;;;;;;;;;;32.08;15.39;100455.02;85648;1336;22497;-80
2022/05/03 08:14:28;;;;;;;;;;;;;;;32.11;15.70;100455.71;85756;1337;23276;-80
2022/05/03 08:16:33;;;;;;;;;;;;;;;32.25;15.61;100455.48;85647;1336;23060;-81
2022/05/03 08:18:41;;;;;;;;;;;;;;;32.34;15.49;100457.46;85650;1339;23332;-80
2022/05/03 08:20:48;;;;;;;;;;;;;;;32.54;15.65;100453.98;85610;1339;23318;-79
2022/05/03 08:22:56;;;;;;;;;;;;;;;32.87;15.66;100456.99;85629;1339;23193;-78
2022/05/03 08:25:04;;;;;;;;;;;;;;;33.22;15.64;100454.63;85655;1336;22549;-85
2022/05/03 08:27:12;;;;;;;;;;;;;;;33.56;14.76;100454.12;85647;1336;23201;-84
2022/05/03 08:29:19;;;;;;;;;;;;;;;33.46;14.47;100453.72;85563;1339;23107;-86
2022/05/03 08:31:24;;;;;;;;;;;;;;;33.11;14.80;100457.36;85745;1338;22487;-84
2022/05/03 08:33:33;;;;;;;;;;;;;;;32.81;14.67;100459.74;85650;1337;23128;-85
2022/05/03 08:35:40;;;;;;;;;;;;;;;32.37;14.86;100456.23;85678;1339;22465;-74
2022/05/03 08:42:34;;;;;;;;;;;;;;;32.33;15.33;100460.86;85725;1335;23263;-72
2022/05/03 08:44:39;;;;;;;;;;;;;;;32.49;16.35;100456.36;85494;1339;22477;-92
2022/05/03 08:46:47;;;;;;;;;;;;;;;32.93;15.63;100456.65;85659;1333;22532;-72
2022/05/03 08:48:54;;;;;;;;;;;;;;;33.33;15.51;100460.18;85674;1337;23260;-74
2022/05/03 08:51:02;;;;;;;;;;;;;;;32.82;14.74;100453.09;85555;1333;22596;-79
2022/05/03 08:53:07;;;;;;;;;;;;;;;32.29;15.25;100457.08;85668;1336;23139;-79
2022/05/03 08:55:13;;;;;;;;;;;;;;;32.37;15.74;100453.27;85694;1336;23178;-82
2022/05/03 08:57:19;;;;;;;;;;;;;;;32.48;15.63;100454.64;85743;1337;23132;-82
2022/05/03 08:59:24;;;;;;;;;;;;;;;32.11;15.42;100449.79;85768;1337;23331;-79
2022/05/03 09:01:29;;;;;;;;;;;;;;;32.05;15.69;100455.48;85655;1339;22469;-79
2022/05/03 09:03:34;;;;;;;;;;;;;;;31.94;15.64;100448.45;85758;1336;23153;-79
2022/05/03 09:05:45;;;;;;;;;;;;;;;32.03;15.79;100454.07;85667;1336;23154;-79
2022/05/03 09:07:51;;;;;;;;;;;;;;;32.22;15.59;100452.24;85654;1336;22505;-90
2022/05/03 09:09:56;;;;;;;;;;;;;;;32.27;16.11;100447.73;85756;1335;22532;-77
2022/05/03 09:12:01;;;;;;;;;;;;;;;32.80;15.76;100444.20;85648;1336;22469;-77
2022/05/03 09:14:06;;;;;;;;;;;;;;;33.13;15.30;100443.77;85656;1336;23558;-89
2022/05/03 09:16:15;;;;;;;;;;;;;;;33.00;15.40;100442.39;85666;1336;23145;-91
2022/05/03 09:18:23;;;;;;;;;;;;;;;33.04;15.28;100441.73;85655;1336;23037;-89
2022/05/03 09:25:20;;;;;;;;;;;;;;;32.01;15.63;100437.34;85685;1336;23153;-87
2022/05/03 09:27:25;;;;;;;;;;;;;;;31.77;16.29;100431.91;85657;1339;23188;-88
2022/05/03 09:29:32;;;;;;;;;;;;;;;31.58;16.10;100438.64;85676;1337;23172;-75
2022/05/03 09:31:41;;;;;;;;;;;;;;;31.08;16.27;100436.05;85475;1338;23138;-74
2022/05/03 09:33:46;;;;;;;;;;;;;;;30.65;16.64;100438.31;85672;1336;22487;-75
2022/05/03 09:35:51;;;;;;;;;;;;;;;30.39;16.89;100437.48;85634;1339;23131;-76
2022/05/03 09:37:55;;;;;;;;;;;;;;;30.11;17.15;100437.46;85632;1338;23104;-80
2022/05/03 09:40:01;;;;;;;;;;;;;;;29.78;17.41;100439.16;85657;1339;23029;-81
2022/05/03 09:42:09;;;;;;;;;;;;;;;29.51;17.68;100444.58;85569;1339;23221;-80
2022/05/03 09:44:18;;;;;;;;;;;;;;;29.28;17.87;100445.05;85657;1339;22532;-80
2022/05/03 09:46:22;;;;;;;;;;;;;;;28.96;18.13;100439.55;85744;1338;22515;-80
2022/05/03 09:48:28;;;;;;;;;;;;;;;28.69;18.16;100438.84;85662;1336;22547;-79
2022/05/03 09:50:40;;;;;;;;;;;;;;;28.23;18.35;100444.23;85742;1336;22530;-79
2022/05/03 09:52:44;;;;;;;;;;;;;;;27.66;18.81;100442.63;85654;1339;22491;-78
2022/05/03 09:54:49;;;;;;;;;;;;;;;27.25;19.15;100437.48;85739;1338;22616;-78
2022/05/03 09:56:54;;;;;;;;;;;;;;;26.89;19.88;100431.44;85660;1336;23115;-78
2022/05/03 09:59:03;;;;;;;;;;;;;;;26.76;20.43;100428.08;85753;1335;23029;-81
2022/05/03 10:01:14;;;;;;;;;;;;;;;26.83;20.95;100424.95;85656;1339;23207;-78
2022/05/03 10:03:20;;;;;;;;;;;;;;;26.74;20.64;100425.95;85652;1339;22534;-79
2022/05/03 10:05:31;;;;;;;;;;;;;;;26.65;20.92;100433.14;85518;1339;22544;-76
2022/05/03 10:07:36;;;;;;;;;;;;;;;26.64;20.63;100432.85;85714;1332;22527;-71
2022/05/03 10:09:41;;;;;;;;;;;;;;;26.53;20.86;100435.45;85648;1337;23158;-79
2022/05/03 10:11:50;;;;;;;;;;;;;;;26.52;20.53;100435.95;85647;1339;23094;-76
2022/05/03 10:13:55;;;;;;;;;;;;;;;26.45;20.67;100436.10;85631;1337;23181;-74
2022/05/03 10:20:53;;;;;;;;;;;;;;;26.47;21.38;100430.88;85761;1338;23167;-77
2022/05/03 10:22:58;;;;;;;;;;;;;;;26.56;21.25;100427.65;85737;1338;22513;-77
2022/05/03 10:28:24;;;;;;;;;;;;;;;26.56;21.04;100432.48;85090;1343;22681;-77
2022/05/03 10:31:21;;;;;;;;;;;;;;;;;;;;;
2022/05/03 10:34:02;;;;;;;;;;;;;;;;;;;;;
2022/05/03 10:36:49;;;;;;;;;;;;;;;26.65;20.48;100434.15;85087;1343;22545;-77
2022/05/03 10:39:22;;;;;;;;;;;;;;;25.72;21.01;100439.75;85000;1344;23306;-78
2022/05/03 10:42:06;;;;;;;;;;;;;;;25.00;21.59;100439.23;85239;1344;22499;-78
2022/05/03 10:44:53;;;;;;;;;;;;;;;24.81;22.40;100435.89;85083;1345;23290;-77
2022/05/03 10:47:04;;;;;;;;;;;;;;;24.88;23.18;100430.01;85012;1345;22541;-70
2022/05/03 10:49:15;;;;;;;;;;;;;;;25.20;23.28;100423.91;85173;1342;22510;-84
2022/05/03 10:51:20;;;;;;;;;;;;;;;25.55;22.94;100429.91;85332;1338;22951;-77
2022/05/03 10:53:32;;;;;;;;;;;;;;;25.75;22.61;100434.90;85755;1338;22602;-78
2022/05/03 10:55:38;;;;;;;;;;;;;;;25.53;22.30;100430.39;85640;1340;22513;-80
2022/05/03 10:58:16;;;;;;;;;;;;;;;25.24;22.45;100436.77;85672;1339;22590;-79
2022/05/03 11:00:57;;;;;;;;;;;;;;;25.16;22.91;100431.09;85745;1338;22579;-76
2022/05/03 11:03:19;;;;;;;;;;;;;;;25.07;22.75;100431.04;85638;1336;22504;-74
2022/05/03 11:05:24;;;;;;;;;;;;;;;24.82;22.25;100430.78;85650;1339;22502;-77
2022/05/03 11:07:31;;;;;;;;;;;;;;;24.67;22.51;100424.27;85641;1336;22550;-77
2022/05/03 11:09:35;;;;;;;;;;;;;;;24.42;22.84;100430.90;85681;1340;22531;-78
2022/05/03 11:12:07;;;;;;;;;;;;;;;24.39;23.00;100429.98;85747;1335;23095;-78
2022/05/03 11:14:50;;;;;;;;;;;;;;;24.40;23.30;100418.40;85629;1340;23131;-76
2022/05/03 11:17:08;;;;;;;;;;;;;;;24.38;23.57;100427.87;85752;1338;23224;-77
2022/05/03 11:19:17;;;;;;;;;;;;;;;24.40;23.43;100421.87;85757;1338;22533;-80
2022/05/03 11:21:22;;;;;;;;;;;;;;;24.25;23.08;100418.05;85649;1339;23162;-80
2022/05/03 11:23:30;;;;;;;;;;;;;;;24.10;23.44;100427.69;85632;1336;23230;-81
2022/05/03 11:25:39;;;;;;;;;;;;;;;24.03;23.70;100421.57;85757;1336;22480;-77
2022/05/03 11:27:48;;;;;;;;;;;;;;;23.97;23.66;100431.23;85757;1338;22473;-79
2022/05/03 11:29:56;;;;;;;;;;;;;;;23.88;24.02;100425.98;85654;1339;22487;-77
2022/05/03 11:32:01;;;;;;;;;;;;;;;23.50;23.62;100426.11;85635;1337;23071;-74
2022/05/03 11:34:07;;;;;;;;;;;;;;;22.95;24.04;100427.16;85475;1341;22467;-81
2022/05/03 11:36:11;;;;;;;;;;;;;;;22.53;24.83;100432.07;85658;1338;22575;-82
2022/05/03 11:38:16;;;;;;;;;;;;;;;22.22;25.20;100428.91;85672;1339;22519;-83
2022/05/03 11:40:26;;;;;;;;;;;;;;;22.00;25.66;100426.09;85786;1338;22492;-78